Time;durP1;ratioP1;P1;durP2;ratioP2;P2;SDS_P1;SDS_P2;PMS_P1;PMS_P2;Temp;Humidity;BMP_temperature;BMP_pressure;BME280_temperature;BME280_humidity;BME280_pressure;Samples;Min_cycle;Max_cycle;Signal;HPM_P1;HPM_P2
2022/08/20 00:01:59;;;;;;;58.40;2.90;;;;;;;;;;5118368;28;20461;-68
2022/08/20 00:04:26;;;;;;;66.23;2.70;;;;;;;;;;5118193;28;20437;-67
2022/08/20 00:06:53;;;;;;;58.40;2.80;;;;;;;;;;5117970;28;20445;-68
2022/08/20 00:09:20;;;;;;;58.80;3.13;;;;;;;;;;5118392;28;20446;-68
2022/08/20 00:11:47;;;;;;;58.20;3.03;;;;;;;;;;5117416;28;20488;-68
2022/08/20 00:14:14;;;;;;;58.17;2.50;;;;;;;;;;5117746;28;20834;-68
2022/08/20 00:16:43;;;;;;;58.20;2.50;;;;;;;;;;5118030;28;20446;-68
2022/08/20 00:19:10;;;;;;;57.87;2.60;;;;;;;;;;5116873;28;20454;-68
2022/08/20 00:21:38;;;;;;;58.20;2.50;;;;;;;;;;5117156;28;20465;-68
2022/08/20 00:24:05;;;;;;;57.93;2.67;;;;;;;;;;5117677;28;20434;-68
2022/08/20 00:26:32;;;;;;;58.60;2.60;;;;;;;;;;5117106;28;20525;-68
2022/08/20 00:29:00;;;;;;;57.80;2.80;;;;;;;;;;5117359;28;20492;-69
2022/08/20 00:31:27;;;;;;;58.17;2.70;;;;;;;;;;5116682;28;21001;-68
2022/08/20 00:33:55;;;;;;;58.00;2.70;;;;;;;;;;5117278;28;20482;-68
2022/08/20 00:36:23;;;;;;;58.17;2.70;;;;;;;;;;5117157;28;20970;-68
2022/08/20 00:38:50;;;;;;;59.70;3.00;;;;;;;;;;5117128;28;20818;-68
2022/08/20 00:41:20;;;;;;;58.17;2.70;;;;;;;;;;5116744;28;20465;-68
2022/08/20 00:43:48;;;;;;;59.60;3.27;;;;;;;;;;5116859;28;20437;-68
2022/08/20 00:46:17;;;;;;;58.50;2.77;;;;;;;;;;5116796;28;20449;-68
2022/08/20 00:48:47;;;;;;;58.40;3.00;;;;;;;;;;5116285;28;20817;-68
2022/08/20 00:51:18;;;;;;;59.07;3.50;;;;;;;;;;5116686;28;20449;-68
2022/08/20 00:53:46;;;;;;;58.60;3.40;;;;;;;;;;5116262;28;20486;-68
2022/08/20 00:56:14;;;;;;;58.70;3.00;;;;;;;;;;5116083;28;20502;-68
2022/08/20 00:58:44;;;;;;;59.00;3.30;;;;;;;;;;5116329;28;20450;-68
2022/08/20 01:01:11;;;;;;;58.87;3.17;;;;;;;;;;5116515;28;21019;-68
2022/08/20 01:03:41;;;;;;;59.20;3.30;;;;;;;;;;5116444;28;20796;-68
2022/08/20 01:06:10;;;;;;;59.37;3.23;;;;;;;;;;5116237;28;20449;-69
2022/08/20 01:08:39;;;;;;;60.03;3.37;;;;;;;;;;5116324;28;20448;-68
2022/08/20 01:11:09;;;;;;;60.17;3.87;;;;;;;;;;5116770;28;20502;-68
2022/08/20 01:13:38;;;;;;;59.27;3.07;;;;;;;;;;5116938;28;20441;-68
2022/08/20 01:16:09;;;;;;;59.30;3.80;;;;;;;;;;5116237;28;20457;-68
2022/08/20 01:18:37;;;;;;;59.77;3.63;;;;;;;;;;5115645;28;20445;-68
2022/08/20 01:21:07;;;;;;;59.20;3.70;;;;;;;;;;5115904;28;20479;-67
2022/08/20 01:23:36;;;;;;;58.97;2.80;;;;;;;;;;5116157;28;20459;-69
2022/08/20 01:26:07;;;;;;;58.67;3.10;;;;;;;;;;5115314;28;20859;-68
2022/08/20 01:28:36;;;;;;;58.90;3.40;;;;;;;;;;5115365;28;20457;-67
2022/08/20 01:31:04;;;;;;;58.50;3.10;;;;;;;;;;5115163;28;20476;-68
2022/08/20 01:33:31;;;;;;;59.50;3.50;;;;;;;;;;5113743;28;20453;-68
2022/08/20 01:35:59;;;;;;;59.17;3.27;;;;;;;;;;5115430;28;20449;-68
2022/08/20 01:38:27;;;;;;;59.10;3.30;;;;;;;;;;5113842;28;20457;-68
2022/08/20 01:41:16;;;;;;;58.40;2.90;;;;;;;;;;5115614;28;20468;-68
2022/08/20 01:43:43;;;;;;;58.27;2.90;;;;;;;;;;5115569;28;20453;-67
2022/08/20 01:46:10;;;;;;;58.70;3.10;;;;;;;;;;5115145;28;20814;-68
2022/08/20 01:48:38;;;;;;;58.70;3.20;;;;;;;;;;5114596;28;20480;-68
2022/08/20 01:51:07;;;;;;;59.27;3.40;;;;;;;;;;5114881;28;20452;-68
2022/08/20 01:53:36;;;;;;;60.93;3.53;;;;;;;;;;5114697;28;20483;-68
2022/08/20 01:56:04;;;;;;;58.87;2.87;;;;;;;;;;5114909;28;20896;-67
2022/08/20 01:58:34;;;;;;;58.70;2.70;;;;;;;;;;5114939;28;20455;-67
2022/08/20 02:01:01;;;;;;;58.57;3.27;;;;;;;;;;5114368;28;20460;-68
2022/08/20 02:03:28;;;;;;;59.20;3.57;;;;;;;;;;5114695;28;20441;-68
2022/08/20 02:05:56;;;;;;;59.30;3.30;;;;;;;;;;5114294;28;20467;-67
2022/08/20 02:08:23;;;;;;;58.80;3.07;;;;;;;;;;5114901;28;20459;-69
2022/08/20 02:10:50;;;;;;;59.10;3.30;;;;;;;;;;5114058;28;20929;-67
2022/08/20 02:13:17;;;;;;;59.73;3.20;;;;;;;;;;5114357;28;20465;-69
2022/08/20 02:15:46;;;;;;;59.00;3.20;;;;;;;;;;5114681;28;20848;-68
2022/08/20 02:18:14;;;;;;;59.20;3.63;;;;;;;;;;5113978;28;20447;-69
2022/08/20 02:20:42;;;;;;;59.00;3.87;;;;;;;;;;5114598;28;20449;-68
2022/08/20 02:23:10;;;;;;;59.30;3.50;;;;;;;;;;5114650;28;20467;-69
2022/08/20 02:25:38;;;;;;;59.00;3.13;;;;;;;;;;5114821;28;21007;-68
2022/08/20 02:28:10;;;;;;;59.13;3.60;;;;;;;;;;5114518;28;20509;-68
2022/08/20 02:30:39;;;;;;;63.80;3.60;;;;;;;;;;5114369;28;20467;-68
2022/08/20 02:33:09;;;;;;;59.60;3.80;;;;;;;;;;5114635;28;20465;-68
2022/08/20 02:35:36;;;;;;;58.90;3.50;;;;;;;;;;5114354;28;21034;-68
2022/08/20 02:38:04;;;;;;;61.63;3.57;;;;;;;;;;5114489;28;20536;-68
2022/08/20 02:40:31;;;;;;;58.67;3.20;;;;;;;;;;5114245;28;20451;-68
2022/08/20 02:42:58;;;;;;;60.37;3.50;;;;;;;;;;5114379;28;20723;-68
2022/08/20 02:45:26;;;;;;;58.63;3.10;;;;;;;;;;5114645;28;20440;-68
2022/08/20 02:47:55;;;;;;;59.60;4.10;;;;;;;;;;5114710;28;20455;-67
2022/08/20 02:50:24;;;;;;;60.27;4.40;;;;;;;;;;5113985;28;20489;-68
2022/08/20 02:52:52;;;;;;;59.30;3.57;;;;;;;;;;5114823;28;20461;-68
2022/08/20 02:55:19;;;;;;;60.40;4.07;;;;;;;;;;5114614;28;20570;-68
2022/08/20 02:57:47;;;;;;;59.40;3.90;;;;;;;;;;5113838;28;20447;-68
2022/08/20 03:00:17;;;;;;;60.47;4.37;;;;;;;;;;5113838;28;20455;-68
2022/08/20 03:02:44;;;;;;;59.30;4.00;;;;;;;;;;5114287;28;20507;-69
2022/08/20 03:05:12;;;;;;;59.33;4.03;;;;;;;;;;5114235;28;20452;-68
2022/08/20 03:07:44;;;;;;;60.20;4.60;;;;;;;;;;5113874;28;20457;-68
2022/08/20 03:10:12;;;;;;;60.70;4.27;;;;;;;;;;5113520;28;20744;-68
2022/08/20 03:12:39;;;;;;;59.10;4.10;;;;;;;;;;5114266;28;20478;-67
2022/08/20 03:15:07;;;;;;;59.90;4.53;;;;;;;;;;5113818;28;20491;-68
2022/08/20 03:17:35;;;;;;;60.07;4.37;;;;;;;;;;5114287;28;20517;-68
2022/08/20 03:20:02;;;;;;;60.07;4.87;;;;;;;;;;5117252;28;20449;-67
2022/08/20 03:22:29;;;;;;;60.20;4.23;;;;;;;;;;5117761;28;20474;-68
2022/08/20 03:24:58;;;;;;;61.57;4.87;;;;;;;;;;5117781;28;20793;-68
2022/08/20 03:27:25;;;;;;;59.60;4.30;;;;;;;;;;5117637;28;20974;-66
2022/08/20 03:29:52;;;;;;;59.67;3.90;;;;;;;;;;5117210;28;20812;-66
2022/08/20 03:32:19;;;;;;;59.50;3.50;;;;;;;;;;5117774;28;20464;-66
2022/08/20 03:34:47;;;;;;;58.97;3.30;;;;;;;;;;5117715;28;20485;-66
2022/08/20 03:37:14;;;;;;;60.00;4.27;;;;;;;;;;5117134;28;20521;-66
2022/08/20 03:39:41;;;;;;;59.87;3.67;;;;;;;;;;5116770;28;20537;-66
2022/08/20 03:42:09;;;;;;;61.27;4.60;;;;;;;;;;5117382;28;20463;-66
2022/08/20 03:44:37;;;;;;;60.67;4.43;;;;;;;;;;5117633;28;20451;-66
2022/08/20 03:47:08;;;;;;;63.37;4.43;;;;;;;;;;5117307;28;20447;-66
2022/08/20 03:49:35;;;;;;;59.90;4.50;;;;;;;;;;5117033;28;20554;-66
2022/08/20 03:52:02;;;;;;;59.80;4.10;;;;;;;;;;5117217;28;20472;-65
2022/08/20 03:54:30;;;;;;;59.67;3.93;;;;;;;;;;5117102;28;20494;-66
2022/08/20 03:56:57;;;;;;;60.47;5.23;;;;;;;;;;5117369;28;20457;-66
2022/08/20 04:02:29;;;;;;;60.70;4.50;;;;;;;;;;5115152;28;21002;-67
2022/08/20 04:04:56;;;;;;;59.87;4.37;;;;;;;;;;5117093;28;20453;-66
2022/08/20 04:07:26;;;;;;;62.30;5.47;;;;;;;;;;5116776;28;20449;-66
2022/08/20 04:09:53;;;;;;;60.40;4.70;;;;;;;;;;5116286;28;20471;-66
2022/08/20 04:12:21;;;;;;;61.53;4.93;;;;;;;;;;5116670;28;20819;-66
2022/08/20 04:14:48;;;;;;;59.30;4.07;;;;;;;;;;5116064;28;20515;-66
2022/08/20 04:17:15;;;;;;;59.77;4.43;;;;;;;;;;5116363;28;20452;-66
2022/08/20 04:19:44;;;;;;;60.63;4.87;;;;;;;;;;5116601;28;20453;-66
2022/08/20 04:22:12;;;;;;;59.87;4.57;;;;;;;;;;5116658;28;20476;-66
2022/08/20 04:24:40;;;;;;;60.60;4.83;;;;;;;;;;5117054;28;20444;-65
2022/08/20 04:27:08;;;;;;;60.00;4.53;;;;;;;;;;5116873;28;20453;-66
2022/08/20 04:29:35;;;;;;;60.87;4.27;;;;;;;;;;5115019;28;20804;-66
2022/08/20 04:32:03;;;;;;;63.30;5.07;;;;;;;;;;5116944;28;20472;-66
2022/08/20 04:34:30;;;;;;;61.97;5.50;;;;;;;;;;5116259;28;20449;-65
2022/08/20 04:36:59;;;;;;;60.50;5.20;;;;;;;;;;5116498;28;20818;-66
2022/08/20 04:39:26;;;;;;;62.97;5.70;;;;;;;;;;5116281;28;20509;-66
2022/08/20 04:41:52;;;;;;;60.17;4.80;;;;;;;;;;5116414;28;20475;-66
2022/08/20 04:44:21;;;;;;;59.97;4.80;;;;;;;;;;5116278;28;20441;-66
2022/08/20 04:46:48;;;;;;;61.30;4.90;;;;;;;;;;5116258;28;20518;-65
2022/08/20 04:49:15;;;;;;;59.70;4.33;;;;;;;;;;5116451;28;20827;-66
2022/08/20 04:51:43;;;;;;;60.37;5.00;;;;;;;;;;5115613;28;20470;-67
2022/08/20 04:54:13;;;;;;;60.17;4.67;;;;;;;;;;5115688;28;20468;-66
2022/08/20 04:56:40;;;;;;;61.30;4.70;;;;;;;;;;5115100;28;20520;-65
2022/08/20 04:59:07;;;;;;;60.20;4.70;;;;;;;;;;5115660;28;20448;-66
2022/08/20 05:01:34;;;;;;;61.97;5.30;;;;;;;;;;5115948;28;20474;-66
2022/08/20 05:04:01;;;;;;;60.17;4.43;;;;;;;;;;5115640;28;20449;-66
2022/08/20 05:06:30;;;;;;;60.70;4.97;;;;;;;;;;5115849;28;20440;-66
2022/08/20 05:08:58;;;;;;;61.30;4.20;;;;;;;;;;5115397;28;20948;-67
2022/08/20 05:11:27;;;;;;;59.47;3.97;;;;;;;;;;5114691;28;20475;-67
2022/08/20 05:13:54;;;;;;;60.07;3.83;;;;;;;;;;5115694;28;20466;-67
2022/08/20 05:16:23;;;;;;;60.70;4.40;;;;;;;;;;5115106;28;20482;-67
2022/08/20 05:18:50;;;;;;;59.13;3.90;;;;;;;;;;5114924;28;20484;-67
2022/08/20 05:21:18;;;;;;;59.57;4.10;;;;;;;;;;5115111;28;20462;-67
2022/08/20 05:23:45;;;;;;;60.40;4.93;;;;;;;;;;5114865;28;20488;-67
2022/08/20 05:26:14;;;;;;;59.60;4.17;;;;;;;;;;5115212;28;20826;-67
2022/08/20 05:28:44;;;;;;;61.93;5.23;;;;;;;;;;5114787;28;20446;-67
2022/08/20 05:31:11;;;;;;;60.37;4.87;;;;;;;;;;5115202;28;20488;-66
2022/08/20 05:33:39;;;;;;;60.47;4.53;;;;;;;;;;5115128;28;20460;-67
2022/08/20 05:36:07;;;;;;;59.20;3.93;;;;;;;;;;5114712;28;20481;-67
2022/08/20 05:38:34;;;;;;;58.90;3.70;;;;;;;;;;5114439;28;20968;-67
2022/08/20 05:41:02;;;;;;;60.00;4.70;;;;;;;;;;5114416;28;20451;-67
2022/08/20 05:43:29;;;;;;;59.47;3.87;;;;;;;;;;5114438;28;20444;-68
2022/08/20 05:45:58;;;;;;;59.80;4.00;;;;;;;;;;5114678;28;20858;-67
2022/08/20 05:48:25;;;;;;;59.80;4.40;;;;;;;;;;5114340;28;20456;-67
2022/08/20 05:50:54;;;;;;;59.90;4.40;;;;;;;;;;5114192;28;20455;-67
2022/08/20 05:53:21;;;;;;;59.23;3.77;;;;;;;;;;5114041;28;20484;-68
2022/08/20 05:55:49;;;;;;;60.37;4.57;;;;;;;;;;5114439;28;20516;-67
2022/08/20 05:58:17;;;;;;;60.90;5.10;;;;;;;;;;5114201;28;20448;-67
2022/08/20 06:00:44;;;;;;;60.13;4.47;;;;;;;;;;5114110;28;20856;-67
2022/08/20 06:06:03;;;;;;;61.23;4.37;;;;;;;;;;5038236;28;20444;-67
2022/08/20 06:08:31;;;;;;;61.70;5.03;;;;;;;;;;5113979;28;20441;-67
2022/08/20 06:10:58;;;;;;;59.80;4.63;;;;;;;;;;5114344;28;20528;-67
2022/08/20 06:13:26;;;;;;;61.03;4.40;;;;;;;;;;5114277;28;20446;-67
2022/08/20 06:15:53;;;;;;;59.70;4.33;;;;;;;;;;5114154;28;20927;-67
2022/08/20 06:18:22;;;;;;;59.87;3.80;;;;;;;;;;5114401;28;20803;-67
2022/08/20 06:20:49;;;;;;;60.93;5.57;;;;;;;;;;5113370;28;20462;-67
2022/08/20 06:23:16;;;;;;;59.90;4.50;;;;;;;;;;5113969;28;20469;-66
2022/08/20 06:25:43;;;;;;;59.80;4.70;;;;;;;;;;5113954;28;20444;-67
2022/08/20 06:28:10;;;;;;;60.53;4.60;;;;;;;;;;5113806;28;20464;-67
2022/08/20 06:30:37;;;;;;;59.60;4.40;;;;;;;;;;5114001;28;20450;-67
2022/08/20 06:33:05;;;;;;;60.90;4.70;;;;;;;;;;5113966;28;20981;-67
2022/08/20 06:35:36;;;;;;;60.00;4.40;;;;;;;;;;5113877;28;20488;-67
2022/08/20 06:38:04;;;;;;;59.97;4.73;;;;;;;;;;5113886;28;20502;-68
2022/08/20 06:40:33;;;;;;;61.93;4.00;;;;;;;;;;5113345;28;20457;-67
2022/08/20 06:43:00;;;;;;;59.20;3.57;;;;;;;;;;5113550;28;20560;-67
2022/08/20 06:45:30;;;;;;;60.87;4.50;;;;;;;;;;5113949;28;20448;-67
2022/08/20 06:47:58;;;;;;;60.67;4.87;;;;;;;;;;5113246;28;20445;-66
2022/08/20 06:50:27;;;;;;;59.90;4.60;;;;;;;;;;5112916;28;20445;-66
2022/08/20 06:52:55;;;;;;;60.10;5.30;;;;;;;;;;5113555;28;21071;-67
2022/08/20 06:55:22;;;;;;;60.37;4.53;;;;;;;;;;5117061;28;20486;-68
2022/08/20 06:57:56;;;;;;;58.97;4.03;;;;;;;;;;5117325;28;20447;-68
2022/08/20 07:00:23;;;;;;;59.33;3.80;;;;;;;;;;5117114;28;20449;-68
2022/08/20 07:02:51;;;;;;;59.17;3.77;;;;;;;;;;5116794;28;20571;-68
2022/08/20 07:05:18;;;;;;;64.00;4.10;;;;;;;;;;5116863;28;20448;-67
2022/08/20 07:07:48;;;;;;;59.50;3.57;;;;;;;;;;5116626;28;21044;-68
2022/08/20 07:10:18;;;;;;;59.70;4.83;;;;;;;;;;5116921;28;20518;-68
2022/08/20 07:12:46;;;;;;;59.47;4.27;;;;;;;;;;5117041;28;20871;-67
2022/08/20 07:15:14;;;;;;;59.60;4.23;;;;;;;;;;5116807;28;20607;-68
2022/08/20 07:17:41;;;;;;;61.77;4.10;;;;;;;;;;5116604;28;20817;-68
2022/08/20 07:20:10;;;;;;;60.00;4.00;;;;;;;;;;5116079;28;20467;-68
2022/08/20 07:22:37;;;;;;;58.80;3.67;;;;;;;;;;5116108;28;20461;-68
2022/08/20 07:25:05;;;;;;;59.70;3.80;;;;;;;;;;5116322;28;20437;-68
2022/08/20 07:27:33;;;;;;;59.67;4.20;;;;;;;;;;5116487;28;20444;-67
2022/08/20 07:32:46;;;;;;;59.40;3.73;;;;;;;;;;5117196;28;20433;-68
2022/08/20 07:35:17;;;;;;;59.20;3.83;;;;;;;;;;5117491;28;20526;-68
2022/08/20 07:37:45;;;;;;;60.37;4.43;;;;;;;;;;5117313;28;20480;-67
2022/08/20 07:40:13;;;;;;;59.00;4.10;;;;;;;;;;5116781;28;20945;-67
2022/08/20 07:42:42;;;;;;;59.50;4.10;;;;;;;;;;5117019;28;20837;-67
2022/08/20 07:45:10;;;;;;;61.47;4.30;;;;;;;;;;5117184;28;20441;-67
2022/08/20 07:47:38;;;;;;;59.70;4.40;;;;;;;;;;5117681;28;20529;-67
2022/08/20 07:50:06;;;;;;;59.50;4.53;;;;;;;;;;5117362;28;20446;-67
2022/08/20 07:52:34;;;;;;;59.00;3.97;;;;;;;;;;5117091;28;20473;-68
2022/08/20 07:55:01;;;;;;;59.57;4.20;;;;;;;;;;5117349;28;20528;-67
2022/08/20 07:57:28;;;;;;;59.60;3.90;;;;;;;;;;5117055;28;20485;-68
2022/08/20 07:59:57;;;;;;;58.47;3.27;;;;;;;;;;5116765;28;20438;-67
2022/08/20 08:02:25;;;;;;;59.73;4.30;;;;;;;;;;5116605;27;21034;-67
2022/08/20 08:04:52;;;;;;;62.70;3.63;;;;;;;;;;5116623;28;20452;-67
2022/08/20 08:07:19;;;;;;;62.20;4.30;;;;;;;;;;5116618;28;20523;-68
2022/08/20 08:09:47;;;;;;;61.73;3.43;;;;;;;;;;5116179;28;20438;-67
2022/08/20 08:12:15;;;;;;;59.07;3.13;;;;;;;;;;5116852;28;20466;-67
2022/08/20 08:14:44;;;;;;;58.90;3.40;;;;;;;;;;5116788;28;20861;-67
2022/08/20 08:17:12;;;;;;;58.80;3.23;;;;;;;;;;5116384;28;21008;-67
2022/08/20 08:19:42;;;;;;;59.77;4.20;;;;;;;;;;5116404;28;20942;-67
2022/08/20 08:22:11;;;;;;;58.97;3.70;;;;;;;;;;5115179;28;20472;-67
2022/08/20 08:24:38;;;;;;;59.83;3.73;;;;;;;;;;5116407;28;20450;-68
2022/08/20 08:27:07;;;;;;;58.57;3.63;;;;;;;;;;5116259;28;20470;-68
2022/08/20 08:29:34;;;;;;;58.87;3.87;;;;;;;;;;5116225;28;20950;-67
2022/08/20 08:32:02;;;;;;;59.10;3.50;;;;;;;;;;5115726;28;20466;-67
2022/08/20 08:34:31;;;;;;;59.17;3.67;;;;;;;;;;5115746;28;20455;-68
2022/08/20 08:37:00;;;;;;;59.90;3.80;;;;;;;;;;5115347;28;20479;-68
2022/08/20 08:39:29;;;;;;;59.07;3.37;;;;;;;;;;5115557;28;20449;-68
2022/08/20 08:41:57;;;;;;;60.27;3.90;;;;;;;;;;5115845;28;20477;-68
2022/08/20 08:44:26;;;;;;;59.83;3.40;;;;;;;;;;5115729;28;20880;-68
2022/08/20 08:46:55;;;;;;;60.30;3.63;;;;;;;;;;5115287;28;20441;-68
2022/08/20 08:49:24;;;;;;;58.00;2.80;;;;;;;;;;5114893;27;20813;-68
2022/08/20 08:51:55;;;;;;;59.47;3.90;;;;;;;;;;5115028;28;20472;-68
2022/08/20 08:54:24;;;;;;;59.43;3.70;;;;;;;;;;5115533;28;20824;-68
2022/08/20 08:56:52;;;;;;;58.73;3.50;;;;;;;;;;5115261;28;20481;-68
2022/08/20 08:59:20;;;;;;;59.07;3.30;;;;;;;;;;5114410;28;20446;-68
2022/08/20 09:01:49;;;;;;;58.90;3.20;;;;;;;;;;5114243;28;20492;-68
2022/08/20 09:04:17;;;;;;;58.80;3.20;;;;;;;;;;5115442;28;20449;-68
2022/08/20 09:06:44;;;;;;;59.53;3.63;;;;;;;;;;5114849;28;20441;-68
2022/08/20 09:09:17;;;;;;;58.70;3.00;;;;;;;;;;5114377;28;20442;-67
2022/08/20 09:11:45;;;;;;;58.37;3.13;;;;;;;;;;5114442;28;20492;-67
2022/08/20 09:14:12;;;;;;;59.63;5.03;;;;;;;;;;5114494;28;20442;-68
2022/08/20 09:16:40;;;;;;;59.20;3.30;;;;;;;;;;5113241;28;20996;-68
2022/08/20 09:19:07;;;;;;;58.80;3.67;;;;;;;;;;5113554;28;20453;-68
2022/08/20 09:21:34;;;;;;;58.90;3.37;;;;;;;;;;5113907;28;20465;-68
2022/08/20 09:24:01;;;;;;;58.90;3.40;;;;;;;;;;5113627;28;20441;-68
2022/08/20 09:26:29;;;;;;;59.37;3.80;;;;;;;;;;5113884;28;20437;-68
2022/08/20 09:28:56;;;;;;;58.90;3.43;;;;;;;;;;5113106;28;20448;-68
2022/08/20 09:31:24;;;;;;;59.00;3.60;;;;;;;;;;5113197;28;20466;-69
2022/08/20 09:33:51;;;;;;;59.40;3.67;;;;;;;;;;5114028;28;20446;-68
2022/08/20 09:36:18;;;;;;;58.80;3.20;;;;;;;;;;5113586;28;20488;-68
2022/08/20 09:38:45;;;;;;;59.07;3.20;;;;;;;;;;5112891;28;20456;-68
2022/08/20 09:41:12;;;;;;;58.50;2.97;;;;;;;;;;5113409;28;20448;-68
2022/08/20 09:43:41;;;;;;;58.50;2.83;;;;;;;;;;5115295;28;20452;-68
2022/08/20 09:46:08;;;;;;;58.60;2.90;;;;;;;;;;5114762;28;20445;-68
2022/08/20 09:48:35;;;;;;;58.00;2.93;;;;;;;;;;5115557;28;20449;-68
2022/08/20 09:51:02;;;;;;;57.87;3.00;;;;;;;;;;5113666;28;20447;-68
2022/08/20 09:53:30;;;;;;;57.80;2.70;;;;;;;;;;5114261;28;20457;-68
2022/08/20 09:55:57;;;;;;;58.80;3.07;;;;;;;;;;5113913;28;20449;-69
2022/08/20 09:58:27;;;;;;;58.70;3.30;;;;;;;;;;5112997;28;20537;-68
2022/08/20 10:00:56;;;;;;;58.50;3.00;;;;;;;;;;5112690;28;20464;-68
2022/08/20 10:03:23;;;;;;;57.77;2.60;;;;;;;;;;5114259;28;20552;-68
2022/08/20 10:05:50;;;;;;;57.80;2.50;;;;;;;;;;5113076;28;20449;-68
2022/08/20 10:08:17;;;;;;;59.50;2.87;;;;;;;;;;5113518;28;20444;-68
2022/08/20 10:10:44;;;;;;;58.07;2.63;;;;;;;;;;5112895;28;20942;-67
2022/08/20 10:13:11;;;;;;;58.40;2.90;;;;;;;;;;5113649;28;20461;-67
2022/08/20 10:15:38;;;;;;;58.30;2.70;;;;;;;;;;5112988;28;20446;-66
2022/08/20 10:18:07;;;;;;;58.30;2.57;;;;;;;;;;5113561;28;20485;-67
2022/08/20 10:20:35;;;;;;;59.30;2.50;;;;;;;;;;5113510;28;20445;-68
2022/08/20 10:23:02;;;;;;;58.57;2.83;;;;;;;;;;5113397;28;20476;-67
2022/08/20 10:25:29;;;;;;;57.73;2.60;;;;;;;;;;5112675;28;20454;-68
2022/08/20 10:27:57;;;;;;;58.83;2.60;;;;;;;;;;5111765;28;20528;-68
2022/08/20 10:30:24;;;;;;;58.70;3.20;;;;;;;;;;5113104;28;20448;-67
2022/08/20 10:32:51;;;;;;;58.57;2.60;;;;;;;;;;5113785;28;20477;-68
2022/08/20 10:35:20;;;;;;;58.50;2.80;;;;;;;;;;5114264;28;20953;-68
2022/08/20 10:37:47;;;;;;;58.47;2.93;;;;;;;;;;5113122;28;20477;-68
2022/08/20 10:40:14;;;;;;;58.17;2.70;;;;;;;;;;5113601;28;20452;-67
2022/08/20 10:42:42;;;;;;;58.13;2.57;;;;;;;;;;5112934;28;20473;-68
2022/08/20 10:45:09;;;;;;;59.07;3.30;;;;;;;;;;5115067;28;20445;-68
2022/08/20 10:47:36;;;;;;;58.80;3.40;;;;;;;;;;5115200;28;20450;-67
2022/08/20 10:50:05;;;;;;;58.73;3.10;;;;;;;;;;5114281;28;20449;-67
2022/08/20 10:52:34;;;;;;;58.33;2.90;;;;;;;;;;5114413;28;20461;-67
2022/08/20 10:55:03;;;;;;;58.40;2.70;;;;;;;;;;5113149;28;20784;-67
2022/08/20 10:57:30;;;;;;;57.90;2.43;;;;;;;;;;5115875;28;20918;-67
2022/08/20 10:59:59;;;;;;;58.40;2.73;;;;;;;;;;5112350;28;20443;-66
2022/08/20 11:02:27;;;;;;;57.93;2.70;;;;;;;;;;5113095;28;20479;-67
2022/08/20 11:04:54;;;;;;;58.10;2.90;;;;;;;;;;5113417;28;20445;-67
2022/08/20 11:07:24;;;;;;;58.23;2.73;;;;;;;;;;5112163;28;20445;-67
2022/08/20 11:09:53;;;;;;;58.40;2.83;;;;;;;;;;5112612;28;20442;-67
2022/08/20 11:12:21;;;;;;;58.50;2.50;;;;;;;;;;5112834;28;20471;-67
2022/08/20 11:14:49;;;;;;;58.60;2.97;;;;;;;;;;5112316;28;20450;-67
2022/08/20 11:17:19;;;;;;;58.27;2.70;;;;;;;;;;5113306;28;20484;-67
2022/08/20 11:19:46;;;;;;;58.07;3.00;;;;;;;;;;5113841;28;20481;-67
2022/08/20 11:22:14;;;;;;;58.10;2.93;;;;;;;;;;5112832;28;20461;-66
2022/08/20 11:24:41;;;;;;;58.20;2.70;;;;;;;;;;5111996;28;20815;-67
2022/08/20 11:27:10;;;;;;;58.30;3.27;;;;;;;;;;5112055;28;20445;-67
2022/08/20 11:29:38;;;;;;;58.40;3.40;;;;;;;;;;5111710;28;20761;-67
2022/08/20 11:32:06;;;;;;;57.50;3.00;;;;;;;;;;5111681;28;20818;-67
2022/08/20 11:34:33;;;;;;;58.87;3.53;;;;;;;;;;5111674;28;20890;-67
2022/08/20 11:37:00;;;;;;;58.80;3.87;;;;;;;;;;5111864;28;20492;-67
2022/08/20 11:39:27;;;;;;;58.20;3.47;;;;;;;;;;5113129;28;20445;-67
2022/08/20 11:41:54;;;;;;;58.50;3.70;;;;;;;;;;5115284;28;20981;-67
2022/08/20 11:44:23;;;;;;;58.17;2.80;;;;;;;;;;5115452;28;20452;-67
2022/08/20 11:46:50;;;;;;;59.17;3.70;;;;;;;;;;5115202;28;20449;-66
2022/08/20 11:49:17;;;;;;;58.43;3.20;;;;;;;;;;5115212;28;20466;-67
2022/08/20 11:51:44;;;;;;;59.50;3.60;;;;;;;;;;5115452;28;20469;-67
2022/08/20 11:54:11;;;;;;;58.97;3.30;;;;;;;;;;5115283;28;20461;-67
2022/08/20 11:56:39;;;;;;;59.07;3.33;;;;;;;;;;5115256;28;20446;-66
2022/08/20 11:59:06;;;;;;;58.60;3.00;;;;;;;;;;5114862;28;20528;-67
2022/08/20 12:01:34;;;;;;;58.33;3.00;;;;;;;;;;5114929;28;20466;-67
2022/08/20 12:04:02;;;;;;;58.10;2.90;;;;;;;;;;5115240;28;20452;-67
2022/08/20 12:06:30;;;;;;;58.07;3.13;;;;;;;;;;5115139;28;20446;-67
2022/08/20 12:08:57;;;;;;;58.20;2.80;;;;;;;;;;5114734;28;20498;-67
2022/08/20 12:11:24;;;;;;;59.23;3.43;;;;;;;;;;5117800;28;20478;-69
2022/08/20 12:13:51;;;;;;;58.37;3.20;;;;;;;;;;5115710;28;20482;-68
2022/08/20 12:16:19;;;;;;;62.60;3.47;;;;;;;;;;5118919;28;21013;-69
2022/08/20 12:18:48;;;;;;;62.70;3.40;;;;;;;;;;5120449;28;20479;-69
2022/08/20 12:21:15;;;;;;;59.27;4.03;;;;;;;;;;5121112;28;20854;-68
2022/08/20 12:23:42;;;;;;;59.27;3.10;;;;;;;;;;5119843;28;20514;-69
2022/08/20 12:26:09;;;;;;;59.30;3.67;;;;;;;;;;5117457;28;20445;-69
2022/08/20 12:28:36;;;;;;;60.53;3.57;;;;;;;;;;5115930;28;20442;-69
2022/08/20 12:31:04;;;;;;;58.63;3.20;;;;;;;;;;5118178;28;20532;-69
2022/08/20 12:33:31;;;;;;;59.07;2.80;;;;;;;;;;5117886;28;20450;-69
2022/08/20 12:36:00;;;;;;;59.30;4.20;;;;;;;;;;5116108;28;20475;-69
2022/08/20 12:38:27;;;;;;;58.47;3.10;;;;;;;;;;5114747;28;20481;-69
2022/08/20 12:40:54;;;;;;;59.07;3.50;;;;;;;;;;5114789;28;20954;-69
2022/08/20 12:43:21;;;;;;;61.60;3.40;;;;;;;;;;5115098;28;20620;-69
2022/08/20 12:45:48;;;;;;;59.00;3.50;;;;;;;;;;5115390;28;20449;-69
2022/08/20 12:48:15;;;;;;;59.30;3.60;;;;;;;;;;5115770;28;20452;-69
2022/08/20 12:50:44;;;;;;;58.53;2.97;;;;;;;;;;5114602;28;20537;-70
2022/08/20 12:53:13;;;;;;;58.37;3.10;;;;;;;;;;5115856;28;20568;-69
2022/08/20 12:55:40;;;;;;;59.80;3.03;;;;;;;;;;5115952;28;20450;-69
2022/08/20 12:58:09;;;;;;;58.60;2.90;;;;;;;;;;5115488;28;20488;-69
2022/08/20 13:00:37;;;;;;;58.83;3.47;;;;;;;;;;5116175;28;20445;-69
2022/08/20 13:03:05;;;;;;;61.13;3.97;;;;;;;;;;5116896;28;20476;-69
2022/08/20 13:05:33;;;;;;;59.10;3.80;;;;;;;;;;5116569;28;20441;-69
2022/08/20 13:08:00;;;;;;;58.40;3.20;;;;;;;;;;5115623;28;20453;-69
2022/08/20 13:10:30;;;;;;;58.47;3.07;;;;;;;;;;5114965;28;20949;-69
2022/08/20 13:12:57;;;;;;;58.50;3.10;;;;;;;;;;5119664;28;20487;-70
2022/08/20 13:15:25;;;;;;;61.97;3.60;;;;;;;;;;5125338;28;20504;-71
2022/08/20 13:17:52;;;;;;;58.83;3.20;;;;;;;;;;5128369;28;20904;-69
2022/08/20 13:20:19;;;;;;;58.87;3.37;;;;;;;;;;5127696;28;20465;-71
2022/08/20 13:22:46;;;;;;;58.53;2.93;;;;;;;;;;5126612;28;20865;-69
2022/08/20 13:25:14;;;;;;;58.50;2.57;;;;;;;;;;5120537;28;20532;-71
2022/08/20 13:27:44;;;;;;;59.80;3.00;;;;;;;;;;5121989;28;21040;-70
2022/08/20 13:30:12;;;;;;;59.20;2.90;;;;;;;;;;5128766;28;20517;-69
2022/08/20 13:32:39;;;;;;;58.30;2.77;;;;;;;;;;5128816;28;20468;-69
2022/08/20 13:35:07;;;;;;;59.50;3.10;;;;;;;;;;5123715;28;20441;-70
2022/08/20 13:37:34;;;;;;;66.27;2.87;;;;;;;;;;5119571;28;20477;-69
2022/08/20 13:40:01;;;;;;;58.27;2.87;;;;;;;;;;5116924;28;20441;-69
2022/08/20 13:42:29;;;;;;;58.70;3.13;;;;;;;;;;5115881;28;20471;-68
2022/08/20 13:44:57;;;;;;;60.20;3.50;;;;;;;;;;5117333;28;20437;-69
2022/08/20 13:47:25;;;;;;;58.07;3.07;;;;;;;;;;5115567;28;20956;-69
2022/08/20 13:49:56;;;;;;;58.70;2.70;;;;;;;;;;5116288;28;20473;-69
2022/08/20 13:52:23;;;;;;;60.43;2.80;;;;;;;;;;5121098;28;20533;-69
2022/08/20 13:54:50;;;;;;;58.80;3.23;;;;;;;;;;5125381;28;20552;-67
2022/08/20 13:57:19;;;;;;;58.43;2.80;;;;;;;;;;5127021;28;20468;-69
2022/08/20 13:59:48;;;;;;;58.80;3.37;;;;;;;;;;5126006;28;20460;-69
2022/08/20 14:02:17;;;;;;;59.33;3.27;;;;;;;;;;5119562;28;20472;-68
2022/08/20 14:04:44;;;;;;;58.30;2.90;;;;;;;;;;5118297;28;20442;-68
2022/08/20 14:07:13;;;;;;;58.43;3.00;;;;;;;;;;5117207;28;20955;-68
2022/08/20 14:09:40;;;;;;;58.50;3.00;;;;;;;;;;5117299;28;20445;-68
2022/08/20 14:12:07;;;;;;;58.40;2.97;;;;;;;;;;5116039;28;20476;-69
2022/08/20 14:14:35;;;;;;;60.30;3.87;;;;;;;;;;5114515;28;20446;-68
2022/08/20 14:17:12;;;;;;;58.60;3.37;;;;;;;;;;5114378;28;20442;-69
2022/08/20 14:19:41;;;;;;;59.50;3.20;;;;;;;;;;5115933;28;20481;-69
2022/08/20 14:22:08;;;;;;;58.80;3.03;;;;;;;;;;5120333;28;20467;-68
2022/08/20 14:24:35;;;;;;;59.03;3.67;;;;;;;;;;5120586;28;20552;-69
2022/08/20 14:27:03;;;;;;;64.30;3.43;;;;;;;;;;5125762;28;20446;-68
2022/08/20 14:29:32;;;;;;;58.90;2.93;;;;;;;;;;5122728;28;20452;-69
2022/08/20 14:31:59;;;;;;;58.03;2.80;;;;;;;;;;5116374;28;20557;-69
2022/08/20 14:34:26;;;;;;;58.00;2.63;;;;;;;;;;5116078;28;20445;-69
2022/08/20 14:36:55;;;;;;;58.40;2.60;;;;;;;;;;5120802;28;20477;-68
2022/08/20 14:39:23;;;;;;;59.03;2.60;;;;;;;;;;5125922;28;20486;-70
2022/08/20 14:41:51;;;;;;;59.47;2.80;;;;;;;;;;5127065;28;20473;-70
2022/08/20 14:44:18;;;;;;;57.77;2.50;;;;;;;;;;5124779;28;20829;-70